Sunday, November 19, 2017, 10:40 AM GMT
Back to Local

CWSS, St. Stephen, N. B.

Location: , , Canada Lat: 45.217
Local Time: 10:40 AM GMT (10:40 GMT) Lon: -67.25
Time Zone: GMT Elev: 85 ft

Show me the last for .
Show Decoded

2017-11-19 10:00 METAR CWSS 191000Z AUTO 12005KT 09/08 RMK AO1 5PAST HR 6051 SLP954 P0006
                 T00870080 50044 =
2017-11-19 09:00 METAR CWSS 190900Z AUTO 10009G16KT 08/07 RMK AO1 9PAST HR PRESFR 8054 SLP969
                 P0004 T00770070 50030 =
2017-11-19 08:00 METAR CWSS 190800Z AUTO 11006KT 07/07 RMK AO1 4PAST HR SOG 00 8044 SLP989 P0005
                 T00730066 50020 =
2017-11-19 07:00 METAR CWSS 190700Z AUTO 09004KT 04/03 RMK AO1 6PAST HR SOG 00 8041 SLP005 P0002
                 T00390031 50006 =
2017-11-19 06:00 METAR CWSS 190600Z AUTO 12002KT 02/01 RMK AO1 SOG 00 6035 SLP023 T00170005 =
2017-11-19 05:00 METAR CWSS 190500Z AUTO 00000KT 02/01 RMK AO1 SOG 00 8037 SLP033 T00170005 =
2017-11-19 04:00 METAR CWSS 190400Z AUTO 11003KT 02/M01 RMK AO1 SOG 00 8033 SLP046 T00191012 =
2017-11-19 03:00 METAR CWSS 190300Z AUTO 12002KT 01/M02 RMK AO1 SOG 00 8020 SLP059 T00061021 =
2017-11-19 02:00 METAR CWSS 190200Z AUTO 00000KT M00/M02 RMK AO1 SOG 00 8016 SLP071 T10011015 =
2017-11-19 01:00 METAR CWSS 190100Z AUTO 00000KT M00/M03 RMK AO1 SOG 00 5006 SLP080 T10021032 =
2017-11-19 00:00 METAR CWSS 190000Z AUTO 03001KT M00/M04 RMK AO1 SOG 00 8009 SLP079 T10011035 =
2017-11-18 23:00 METAR CWSS 182300Z AUTO 26003KT 00/M04 RMK AO1 SOG 00 5007 SLP087 T00001040 =
2017-11-18 22:00 METAR CWSS 182200Z AUTO 00000KT 00/M04 RMK AO1 SOG 00 8008 SLP086 T00001044 =
2017-11-18 21:00 METAR CWSS 182100Z AUTO 00000KT M00/M04 RMK AO1 SOG 00 8009 SLP088 T10031044 =
2017-11-18 20:00 METAR CWSS 182000Z AUTO 30002KT 02/M06 RMK AO1 SOG 00 6003 SLP094 T00181060 =
2017-11-18 19:00 METAR CWSS 181900Z AUTO 28003KT 02/M06 RMK AO1 SOG 00 6011 SLP094 T00221062 =
2017-11-18 18:00 METAR CWSS 181800Z AUTO 26003KT 02/M06 RMK AO1 SOG 00 6018 SLP097 T00231059 =
2017-11-18 17:00 METAR CWSS 181700Z AUTO 26005KT 02/M06 RMK AO1 SOG 00 8019 SLP097 T00211063 =
2017-11-18 16:00 METAR CWSS 181600Z AUTO 33007KT 02/M06 RMK AO1 SOG 00 8008 SLP105 T00201055 =
2017-11-18 15:00 METAR CWSS 181500Z AUTO 30006KT M00/M08 RMK AO1 SOG 00 5000 SLP115 T10021077 =
2017-11-18 14:00 METAR CWSS 181400Z AUTO 30006KT M01/M08 RMK AO1 SOG 00 1005 SLP116 T10121079 =
2017-11-18 13:00 METAR CWSS 181300Z AUTO 33005KT M03/M08 RMK AO1 SOG 00 0005 SLP113 T10281076 =
2017-11-18 12:00 METAR CWSS 181200Z AUTO 28004KT M05/M08 RMK AO1 SOG 00 1016 SLP115 T10461076 =
2017-11-18 11:00 METAR CWSS 181100Z AUTO 29004KT M05/M08 RMK AO1 SOG 00 1017 SLP111 T10461078 =

Support USWX by starting your Amazon purchase here.